sensor_id;sensor_type;location;lat;lon;timestamp;P1;durP1;ratioP1;P2;durP2;ratioP2
21721;SDS011;11023;48.274;7.794;2023-04-30T00:02:09;13.68;;;10.82;;
21721;SDS011;11023;48.274;7.794;2023-04-30T00:04:35;15.82;;;11.18;;
21721;SDS011;11023;48.274;7.794;2023-04-30T00:07:09;16.55;;;11.45;;
21721;SDS011;11023;48.274;7.794;2023-04-30T00:09:40;14.73;;;11.65;;
21721;SDS011;11023;48.274;7.794;2023-04-30T00:12:09;16.55;;;12.73;;
21721;SDS011;11023;48.274;7.794;2023-04-30T00:14:42;19.17;;;13.32;;
21721;SDS011;11023;48.274;7.794;2023-04-30T00:17:18;16.40;;;13.15;;
21721;SDS011;11023;48.274;7.794;2023-04-30T00:19:49;16.73;;;12.90;;
21721;SDS011;11023;48.274;7.794;2023-04-30T00:22:22;16.83;;;13.20;;
21721;SDS011;11023;48.274;7.794;2023-04-30T00:24:50;18.02;;;13.25;;
21721;SDS011;11023;48.274;7.794;2023-04-30T00:27:23;16.48;;;12.95;;
21721;SDS011;11023;48.274;7.794;2023-04-30T00:29:49;18.52;;;13.45;;
21721;SDS011;11023;48.274;7.794;2023-04-30T00:32:26;16.95;;;13.40;;
21721;SDS011;11023;48.274;7.794;2023-04-30T00:34:52;17.50;;;14.18;;
21721;SDS011;11023;48.274;7.794;2023-04-30T00:37:18;19.05;;;13.90;;
21721;SDS011;11023;48.274;7.794;2023-04-30T00:39:49;19.63;;;15.52;;
21721;SDS011;11023;48.274;7.794;2023-04-30T00:42:18;22.58;;;14.90;;
21721;SDS011;11023;48.274;7.794;2023-04-30T00:44:46;22.58;;;16.27;;
21721;SDS011;11023;48.274;7.794;2023-04-30T00:47:14;22.55;;;16.38;;
21721;SDS011;11023;48.274;7.794;2023-04-30T00:49:45;25.00;;;16.52;;
21721;SDS011;11023;48.274;7.794;2023-04-30T00:52:14;21.63;;;15.75;;
21721;SDS011;11023;48.274;7.794;2023-04-30T00:54:43;22.75;;;16.25;;
21721;SDS011;11023;48.274;7.794;2023-04-30T00:57:11;21.02;;;16.05;;
21721;SDS011;11023;48.274;7.794;2023-04-30T00:59:46;21.73;;;16.80;;
21721;SDS011;11023;48.274;7.794;2023-04-30T01:02:24;22.48;;;17.08;;
21721;SDS011;11023;48.274;7.794;2023-04-30T01:04:56;23.40;;;17.83;;
21721;SDS011;11023;48.274;7.794;2023-04-30T01:07:25;24.00;;;17.80;;
21721;SDS011;11023;48.274;7.794;2023-04-30T01:09:52;23.02;;;17.73;;
21721;SDS011;11023;48.274;7.794;2023-04-30T01:12:28;25.17;;;18.23;;
21721;SDS011;11023;48.274;7.794;2023-04-30T01:21:06;25.23;;;19.48;;
21721;SDS011;11023;48.274;7.794;2023-04-30T01:29:45;31.10;;;21.02;;
21721;SDS011;11023;48.274;7.794;2023-04-30T01:32:14;27.27;;;20.40;;
21721;SDS011;11023;48.274;7.794;2023-04-30T01:34:49;32.13;;;22.38;;
21721;SDS011;11023;48.274;7.794;2023-04-30T01:37:18;29.88;;;22.73;;
21721;SDS011;11023;48.274;7.794;2023-04-30T01:46:01;31.67;;;22.90;;
21721;SDS011;11023;48.274;7.794;2023-04-30T01:49:03;32.65;;;23.10;;
21721;SDS011;11023;48.274;7.794;2023-04-30T01:51:38;30.23;;;22.75;;
21721;SDS011;11023;48.274;7.794;2023-04-30T01:57:06;30.73;;;22.20;;
21721;SDS011;11023;48.274;7.794;2023-04-30T01:59:41;35.78;;;24.10;;
21721;SDS011;11023;48.274;7.794;2023-04-30T02:02:08;32.78;;;23.95;;
21721;SDS011;11023;48.274;7.794;2023-04-30T02:04:36;34.63;;;23.98;;
21721;SDS011;11023;48.274;7.794;2023-04-30T02:07:07;36.90;;;25.08;;
21721;SDS011;11023;48.274;7.794;2023-04-30T02:09:39;34.25;;;23.70;;
21721;SDS011;11023;48.274;7.794;2023-04-30T02:12:05;35.00;;;25.05;;
21721;SDS011;11023;48.274;7.794;2023-04-30T02:14:31;37.58;;;25.55;;
21721;SDS011;11023;48.274;7.794;2023-04-30T02:16:57;35.97;;;24.20;;
21721;SDS011;11023;48.274;7.794;2023-04-30T02:19:22;33.55;;;23.40;;
21721;SDS011;11023;48.274;7.794;2023-04-30T02:21:48;33.95;;;23.88;;
21721;SDS011;11023;48.274;7.794;2023-04-30T02:24:25;35.13;;;24.83;;
21721;SDS011;11023;48.274;7.794;2023-04-30T02:27:08;37.95;;;24.88;;
21721;SDS011;11023;48.274;7.794;2023-04-30T02:29:52;35.10;;;24.45;;
21721;SDS011;11023;48.274;7.794;2023-04-30T02:32:35;36.70;;;26.27;;
21721;SDS011;11023;48.274;7.794;2023-04-30T02:35:01;38.83;;;25.30;;
21721;SDS011;11023;48.274;7.794;2023-04-30T02:37:27;35.92;;;25.33;;
21721;SDS011;11023;48.274;7.794;2023-04-30T02:40:07;36.10;;;24.95;;
21721;SDS011;11023;48.274;7.794;2023-04-30T02:42:50;35.13;;;24.65;;
21721;SDS011;11023;48.274;7.794;2023-04-30T02:45:34;41.22;;;25.42;;
21721;SDS011;11023;48.274;7.794;2023-04-30T02:48:03;42.85;;;25.02;;
21721;SDS011;11023;48.274;7.794;2023-04-30T02:50:37;35.83;;;25.25;;
21721;SDS011;11023;48.274;7.794;2023-04-30T02:53:03;35.58;;;24.60;;
21721;SDS011;11023;48.274;7.794;2023-04-30T02:55:33;37.28;;;25.23;;
21721;SDS011;11023;48.274;7.794;2023-04-30T02:58:02;35.72;;;24.85;;
21721;SDS011;11023;48.274;7.794;2023-04-30T03:00:39;35.40;;;24.13;;
21721;SDS011;11023;48.274;7.794;2023-04-30T03:05:48;36.67;;;24.10;;
21721;SDS011;11023;48.274;7.794;2023-04-30T03:08:17;35.22;;;24.00;;
21721;SDS011;11023;48.274;7.794;2023-04-30T03:10:45;32.80;;;22.83;;
21721;SDS011;11023;48.274;7.794;2023-04-30T03:13:14;31.73;;;21.83;;
21721;SDS011;11023;48.274;7.794;2023-04-30T03:15:43;34.10;;;22.05;;
21721;SDS011;11023;48.274;7.794;2023-04-30T03:18:09;35.47;;;22.83;;
21721;SDS011;11023;48.274;7.794;2023-04-30T03:20:35;32.28;;;21.58;;
21721;SDS011;11023;48.274;7.794;2023-04-30T03:23:01;32.72;;;22.08;;
21721;SDS011;11023;48.274;7.794;2023-04-30T03:25:27;30.58;;;22.00;;
21721;SDS011;11023;48.274;7.794;2023-04-30T03:27:52;29.60;;;20.88;;
21721;SDS011;11023;48.274;7.794;2023-04-30T03:30:21;28.00;;;19.15;;
21721;SDS011;11023;48.274;7.794;2023-04-30T03:32:47;28.30;;;20.02;;
21721;SDS011;11023;48.274;7.794;2023-04-30T03:35:13;26.13;;;18.85;;
21721;SDS011;11023;48.274;7.794;2023-04-30T03:37:42;27.08;;;19.33;;
21721;SDS011;11023;48.274;7.794;2023-04-30T03:40:07;25.33;;;18.50;;
21721;SDS011;11023;48.274;7.794;2023-04-30T03:42:39;28.30;;;18.88;;
21721;SDS011;11023;48.274;7.794;2023-04-30T03:45:10;26.02;;;17.75;;
21721;SDS011;11023;48.274;7.794;2023-04-30T03:47:36;26.10;;;16.98;;
21721;SDS011;11023;48.274;7.794;2023-04-30T03:50:02;22.92;;;16.98;;
21721;SDS011;11023;48.274;7.794;2023-04-30T03:52:31;23.67;;;16.70;;
21721;SDS011;11023;48.274;7.794;2023-04-30T03:55:09;21.55;;;15.70;;
21721;SDS011;11023;48.274;7.794;2023-04-30T03:57:35;21.42;;;15.80;;
21721;SDS011;11023;48.274;7.794;2023-04-30T04:00:02;23.95;;;15.70;;
21721;SDS011;11023;48.274;7.794;2023-04-30T04:02:32;20.25;;;15.32;;
21721;SDS011;11023;48.274;7.794;2023-04-30T04:04:58;20.10;;;14.82;;
21721;SDS011;11023;48.274;7.794;2023-04-30T04:07:24;18.70;;;13.93;;
21721;SDS011;11023;48.274;7.794;2023-04-30T04:09:49;17.73;;;13.88;;
21721;SDS011;11023;48.274;7.794;2023-04-30T04:12:15;19.35;;;13.75;;
21721;SDS011;11023;48.274;7.794;2023-04-30T04:14:41;17.73;;;13.55;;
21721;SDS011;11023;48.274;7.794;2023-04-30T04:17:07;17.67;;;13.45;;
21721;SDS011;11023;48.274;7.794;2023-04-30T04:19:32;22.20;;;13.35;;
21721;SDS011;11023;48.274;7.794;2023-04-30T04:21:58;17.55;;;13.35;;
21721;SDS011;11023;48.274;7.794;2023-04-30T04:24:25;17.60;;;12.57;;
21721;SDS011;11023;48.274;7.794;2023-04-30T04:26:50;16.58;;;12.40;;
21721;SDS011;11023;48.274;7.794;2023-04-30T04:29:20;14.25;;;12.10;;
21721;SDS011;11023;48.274;7.794;2023-04-30T04:31:51;15.15;;;11.35;;
21721;SDS011;11023;48.274;7.794;2023-04-30T04:34:20;14.75;;;11.50;;
21721;SDS011;11023;48.274;7.794;2023-04-30T04:36:51;15.70;;;11.80;;
21721;SDS011;11023;48.274;7.794;2023-04-30T04:39:17;15.80;;;12.32;;
21721;SDS011;11023;48.274;7.794;2023-04-30T04:41:43;14.68;;;11.10;;
21721;SDS011;11023;48.274;7.794;2023-04-30T04:44:11;17.75;;;10.95;;
21721;SDS011;11023;48.274;7.794;2023-04-30T04:46:46;15.93;;;11.02;;
21721;SDS011;11023;48.274;7.794;2023-04-30T04:49:11;14.15;;;11.27;;
21721;SDS011;11023;48.274;7.794;2023-04-30T04:51:37;13.38;;;10.18;;
21721;SDS011;11023;48.274;7.794;2023-04-30T04:54:03;14.38;;;10.65;;
21721;SDS011;11023;48.274;7.794;2023-04-30T04:56:30;12.73;;;10.23;;
21721;SDS011;11023;48.274;7.794;2023-04-30T04:58:58;13.93;;;10.88;;
21721;SDS011;11023;48.274;7.794;2023-04-30T05:01:23;12.88;;;10.05;;
21721;SDS011;11023;48.274;7.794;2023-04-30T05:03:49;13.07;;;10.05;;
21721;SDS011;11023;48.274;7.794;2023-04-30T05:06:17;12.98;;;10.07;;
21721;SDS011;11023;48.274;7.794;2023-04-30T05:08:43;14.65;;;10.90;;
21721;SDS011;11023;48.274;7.794;2023-04-30T05:11:09;14.52;;;9.75;;
21721;SDS011;11023;48.274;7.794;2023-04-30T05:13:34;12.80;;;10.30;;
21721;SDS011;11023;48.274;7.794;2023-04-30T05:16:00;11.90;;;10.07;;
21721;SDS011;11023;48.274;7.794;2023-04-30T05:18:26;12.30;;;9.90;;
21721;SDS011;11023;48.274;7.794;2023-04-30T05:20:51;13.30;;;9.95;;
21721;SDS011;11023;48.274;7.794;2023-04-30T05:23:17;12.98;;;9.65;;
21721;SDS011;11023;48.274;7.794;2023-04-30T05:25:43;14.25;;;9.90;;
21721;SDS011;11023;48.274;7.794;2023-04-30T05:28:09;11.55;;;9.70;;
21721;SDS011;11023;48.274;7.794;2023-04-30T05:30:35;12.38;;;9.20;;
21721;SDS011;11023;48.274;7.794;2023-04-30T05:33:01;10.63;;;9.30;;
21721;SDS011;11023;48.274;7.794;2023-04-30T05:35:30;10.00;;;8.73;;
21721;SDS011;11023;48.274;7.794;2023-04-30T05:38:00;11.10;;;8.10;;
21721;SDS011;11023;48.274;7.794;2023-04-30T05:40:29;10.80;;;8.15;;
21721;SDS011;11023;48.274;7.794;2023-04-30T05:42:56;11.18;;;8.30;;
21721;SDS011;11023;48.274;7.794;2023-04-30T05:45:21;10.02;;;8.05;;
21721;SDS011;11023;48.274;7.794;2023-04-30T05:47:48;10.00;;;7.63;;
21721;SDS011;11023;48.274;7.794;2023-04-30T05:50:13;8.77;;;7.68;;
21721;SDS011;11023;48.274;7.794;2023-04-30T05:52:39;8.75;;;7.38;;
21721;SDS011;11023;48.274;7.794;2023-04-30T05:55:05;9.75;;;6.57;;
21721;SDS011;11023;48.274;7.794;2023-04-30T05:57:31;7.82;;;6.45;;
21721;SDS011;11023;48.274;7.794;2023-04-30T06:00:02;8.68;;;6.30;;
21721;SDS011;11023;48.274;7.794;2023-04-30T06:02:30;7.40;;;5.88;;
21721;SDS011;11023;48.274;7.794;2023-04-30T06:07:22;7.90;;;5.57;;
21721;SDS011;11023;48.274;7.794;2023-04-30T06:09:47;7.72;;;5.57;;
21721;SDS011;11023;48.274;7.794;2023-04-30T06:12:25;10.80;;;5.43;;
21721;SDS011;11023;48.274;7.794;2023-04-30T06:14:51;9.38;;;5.40;;
21721;SDS011;11023;48.274;7.794;2023-04-30T06:17:17;8.07;;;5.38;;
21721;SDS011;11023;48.274;7.794;2023-04-30T06:19:43;5.93;;;4.80;;
21721;SDS011;11023;48.274;7.794;2023-04-30T06:22:08;7.20;;;5.88;;
21721;SDS011;11023;48.274;7.794;2023-04-30T06:24:34;7.38;;;5.40;;
21721;SDS011;11023;48.274;7.794;2023-04-30T06:27:00;6.90;;;4.82;;
21721;SDS011;11023;48.274;7.794;2023-04-30T06:29:26;6.03;;;5.28;;
21721;SDS011;11023;48.274;7.794;2023-04-30T06:31:52;5.72;;;4.68;;
21721;SDS011;11023;48.274;7.794;2023-04-30T06:34:18;5.78;;;4.93;;
21721;SDS011;11023;48.274;7.794;2023-04-30T06:36:44;5.50;;;4.63;;
21721;SDS011;11023;48.274;7.794;2023-04-30T06:39:12;5.18;;;4.68;;
21721;SDS011;11023;48.274;7.794;2023-04-30T06:41:39;6.43;;;5.03;;
21721;SDS011;11023;48.274;7.794;2023-04-30T06:44:05;6.22;;;4.35;;
21721;SDS011;11023;48.274;7.794;2023-04-30T06:46:32;6.22;;;4.50;;
21721;SDS011;11023;48.274;7.794;2023-04-30T06:48:58;6.45;;;4.22;;
21721;SDS011;11023;48.274;7.794;2023-04-30T06:51:24;5.43;;;3.97;;
21721;SDS011;11023;48.274;7.794;2023-04-30T06:53:50;4.85;;;3.63;;
21721;SDS011;11023;48.274;7.794;2023-04-30T06:56:16;4.75;;;3.55;;
21721;SDS011;11023;48.274;7.794;2023-04-30T06:58:42;5.75;;;3.75;;
21721;SDS011;11023;48.274;7.794;2023-04-30T07:01:09;6.05;;;3.50;;
21721;SDS011;11023;48.274;7.794;2023-04-30T07:03:34;4.38;;;3.55;;
21721;SDS011;11023;48.274;7.794;2023-04-30T07:06:00;3.78;;;3.15;;
21721;SDS011;11023;48.274;7.794;2023-04-30T07:08:26;7.13;;;3.30;;
21721;SDS011;11023;48.274;7.794;2023-04-30T07:10:51;5.10;;;3.13;;
21721;SDS011;11023;48.274;7.794;2023-04-30T07:13:17;4.18;;;3.38;;
21721;SDS011;11023;48.274;7.794;2023-04-30T07:15:43;5.10;;;3.30;;
21721;SDS011;11023;48.274;7.794;2023-04-30T07:18:09;4.25;;;3.03;;
21721;SDS011;11023;48.274;7.794;2023-04-30T07:20:34;3.80;;;3.28;;
21721;SDS011;11023;48.274;7.794;2023-04-30T07:23:00;4.43;;;3.17;;
21721;SDS011;11023;48.274;7.794;2023-04-30T07:25:26;4.32;;;3.05;;
21721;SDS011;11023;48.274;7.794;2023-04-30T07:27:51;4.47;;;2.97;;
21721;SDS011;11023;48.274;7.794;2023-04-30T07:30:18;5.13;;;2.90;;
21721;SDS011;11023;48.274;7.794;2023-04-30T07:32:44;4.20;;;2.70;;
21721;SDS011;11023;48.274;7.794;2023-04-30T07:35:09;3.78;;;2.45;;
21721;SDS011;11023;48.274;7.794;2023-04-30T07:37:35;2.75;;;2.50;;
21721;SDS011;11023;48.274;7.794;2023-04-30T07:40:01;4.75;;;3.00;;
21721;SDS011;11023;48.274;7.794;2023-04-30T07:42:27;4.32;;;3.20;;
21721;SDS011;11023;48.274;7.794;2023-04-30T07:44:53;3.83;;;3.30;;
21721;SDS011;11023;48.274;7.794;2023-04-30T07:47:18;3.22;;;2.80;;
21721;SDS011;11023;48.274;7.794;2023-04-30T07:49:47;3.47;;;2.67;;
21721;SDS011;11023;48.274;7.794;2023-04-30T07:52:13;4.82;;;2.83;;
21721;SDS011;11023;48.274;7.794;2023-04-30T07:54:39;4.80;;;2.30;;
21721;SDS011;11023;48.274;7.794;2023-04-30T07:57:05;2.38;;;2.17;;
21721;SDS011;11023;48.274;7.794;2023-04-30T07:59:31;3.03;;;2.53;;
21721;SDS011;11023;48.274;7.794;2023-04-30T08:01:57;5.35;;;2.72;;
21721;SDS011;11023;48.274;7.794;2023-04-30T08:04:23;3.40;;;2.22;;
21721;SDS011;11023;48.274;7.794;2023-04-30T08:06:48;3.25;;;2.28;;
21721;SDS011;11023;48.274;7.794;2023-04-30T08:09:14;2.30;;;1.90;;
21721;SDS011;11023;48.274;7.794;2023-04-30T08:11:40;4.55;;;2.30;;
21721;SDS011;11023;48.274;7.794;2023-04-30T08:14:06;2.50;;;2.30;;
21721;SDS011;11023;48.274;7.794;2023-04-30T08:16:32;2.50;;;2.20;;
21721;SDS011;11023;48.274;7.794;2023-04-30T08:18:57;2.75;;;2.10;;
21721;SDS011;11023;48.274;7.794;2023-04-30T08:21:23;3.60;;;1.70;;
21721;SDS011;11023;48.274;7.794;2023-04-30T08:23:49;2.70;;;2.10;;
21721;SDS011;11023;48.274;7.794;2023-04-30T08:26:15;3.13;;;2.38;;
21721;SDS011;11023;48.274;7.794;2023-04-30T08:28:41;2.25;;;2.05;;
21721;SDS011;11023;48.274;7.794;2023-04-30T08:31:06;3.47;;;1.75;;
21721;SDS011;11023;48.274;7.794;2023-04-30T08:33:32;2.97;;;2.15;;
21721;SDS011;11023;48.274;7.794;2023-04-30T08:35:58;2.65;;;2.28;;
21721;SDS011;11023;48.274;7.794;2023-04-30T08:38:23;2.40;;;2.13;;
21721;SDS011;11023;48.274;7.794;2023-04-30T08:40:55;2.45;;;2.00;;
21721;SDS011;11023;48.274;7.794;2023-04-30T08:43:27;3.22;;;2.22;;
21721;SDS011;11023;48.274;7.794;2023-04-30T08:45:53;2.75;;;2.25;;
21721;SDS011;11023;48.274;7.794;2023-04-30T08:48:20;2.13;;;1.92;;
21721;SDS011;11023;48.274;7.794;2023-04-30T08:50:47;2.00;;;1.90;;
21721;SDS011;11023;48.274;7.794;2023-04-30T08:53:13;2.78;;;1.83;;
21721;SDS011;11023;48.274;7.794;2023-04-30T08:55:41;2.70;;;1.85;;
21721;SDS011;11023;48.274;7.794;2023-04-30T08:58:07;2.00;;;1.80;;
21721;SDS011;11023;48.274;7.794;2023-04-30T09:00:34;2.47;;;1.90;;
21721;SDS011;11023;48.274;7.794;2023-04-30T09:03:02;2.50;;;1.80;;
21721;SDS011;11023;48.274;7.794;2023-04-30T09:05:28;2.05;;;1.75;;
21721;SDS011;11023;48.274;7.794;2023-04-30T09:07:55;2.00;;;1.90;;
21721;SDS011;11023;48.274;7.794;2023-04-30T09:10:21;3.25;;;2.00;;
21721;SDS011;11023;48.274;7.794;2023-04-30T09:15:33;4.15;;;2.33;;
21721;SDS011;11023;48.274;7.794;2023-04-30T09:18:10;2.38;;;2.17;;
21721;SDS011;11023;48.274;7.794;2023-04-30T09:23:19;2.25;;;1.83;;
21721;SDS011;11023;48.274;7.794;2023-04-30T09:25:45;1.90;;;1.80;;
21721;SDS011;11023;48.274;7.794;2023-04-30T09:28:11;2.00;;;1.80;;
21721;SDS011;11023;48.274;7.794;2023-04-30T09:30:38;2.97;;;2.10;;
21721;SDS011;11023;48.274;7.794;2023-04-30T09:33:04;2.72;;;2.00;;
21721;SDS011;11023;48.274;7.794;2023-04-30T09:35:31;2.63;;;2.00;;
21721;SDS011;11023;48.274;7.794;2023-04-30T09:37:59;1.83;;;1.73;;
21721;SDS011;11023;48.274;7.794;2023-04-30T09:40:39;2.05;;;1.80;;
21721;SDS011;11023;48.274;7.794;2023-04-30T09:43:06;2.47;;;1.70;;
21721;SDS011;11023;48.274;7.794;2023-04-30T09:45:39;2.85;;;1.80;;
21721;SDS011;11023;48.274;7.794;2023-04-30T09:48:11;1.83;;;1.60;;
21721;SDS011;11023;48.274;7.794;2023-04-30T09:50:40;1.70;;;1.60;;
21721;SDS011;11023;48.274;7.794;2023-04-30T09:53:06;1.63;;;1.52;;
21721;SDS011;11023;48.274;7.794;2023-04-30T09:55:33;2.58;;;1.50;;
21721;SDS011;11023;48.274;7.794;2023-04-30T09:58:02;2.05;;;1.65;;
21721;SDS011;11023;48.274;7.794;2023-04-30T10:00:29;2.38;;;1.70;;
21721;SDS011;11023;48.274;7.794;2023-04-30T10:02:57;2.53;;;1.70;;
21721;SDS011;11023;48.274;7.794;2023-04-30T10:05:25;2.03;;;1.40;;
21721;SDS011;11023;48.274;7.794;2023-04-30T10:07:52;2.30;;;1.35;;
21721;SDS011;11023;48.274;7.794;2023-04-30T10:10:18;2.85;;;1.70;;
21721;SDS011;11023;48.274;7.794;2023-04-30T10:15:23;1.92;;;1.70;;
21721;SDS011;11023;48.274;7.794;2023-04-30T10:17:54;1.88;;;1.70;;
21721;SDS011;11023;48.274;7.794;2023-04-30T10:20:26;1.70;;;1.60;;
21721;SDS011;11023;48.274;7.794;2023-04-30T10:22:52;2.38;;;1.85;;
21721;SDS011;11023;48.274;7.794;2023-04-30T10:25:18;1.30;;;1.20;;
21721;SDS011;11023;48.274;7.794;2023-04-30T10:27:44;1.80;;;1.70;;
21721;SDS011;11023;48.274;7.794;2023-04-30T10:30:10;2.78;;;1.90;;
21721;SDS011;11023;48.274;7.794;2023-04-30T10:32:47;2.33;;;1.83;;
21721;SDS011;11023;48.274;7.794;2023-04-30T10:35:23;1.70;;;1.60;;
21721;SDS011;11023;48.274;7.794;2023-04-30T10:37:54;2.08;;;1.80;;
21721;SDS011;11023;48.274;7.794;2023-04-30T10:40:27;4.32;;;2.05;;
21721;SDS011;11023;48.274;7.794;2023-04-30T10:42:53;1.63;;;1.50;;
21721;SDS011;11023;48.274;7.794;2023-04-30T10:45:33;3.08;;;1.58;;
21721;SDS011;11023;48.274;7.794;2023-04-30T10:48:02;4.00;;;1.88;;
21721;SDS011;11023;48.274;7.794;2023-04-30T10:50:29;1.98;;;1.48;;
21721;SDS011;11023;48.274;7.794;2023-04-30T10:53:00;1.60;;;1.48;;
21721;SDS011;11023;48.274;7.794;2023-04-30T10:55:28;2.10;;;1.90;;
21721;SDS011;11023;48.274;7.794;2023-04-30T10:57:56;2.20;;;2.00;;
21721;SDS011;11023;48.274;7.794;2023-04-30T11:00:27;2.40;;;2.15;;
21721;SDS011;11023;48.274;7.794;2023-04-30T11:02:57;2.10;;;1.90;;
21721;SDS011;11023;48.274;7.794;2023-04-30T11:05:34;2.03;;;1.73;;
21721;SDS011;11023;48.274;7.794;2023-04-30T11:08:02;2.40;;;2.20;;
21721;SDS011;11023;48.274;7.794;2023-04-30T11:10:31;2.75;;;2.03;;
21721;SDS011;11023;48.274;7.794;2023-04-30T11:13:06;1.98;;;1.80;;
21721;SDS011;11023;48.274;7.794;2023-04-30T11:15:38;1.85;;;1.75;;
21721;SDS011;11023;48.274;7.794;2023-04-30T11:18:08;1.90;;;1.80;;
21721;SDS011;11023;48.274;7.794;2023-04-30T11:20:39;2.05;;;1.80;;
21721;SDS011;11023;48.274;7.794;2023-04-30T11:25:39;3.17;;;1.80;;
21721;SDS011;11023;48.274;7.794;2023-04-30T11:28:12;1.98;;;1.88;;
21721;SDS011;11023;48.274;7.794;2023-04-30T11:30:54;1.83;;;1.70;;
21721;SDS011;11023;48.274;7.794;2023-04-30T11:33:21;1.98;;;1.80;;
21721;SDS011;11023;48.274;7.794;2023-04-30T11:35:48;3.03;;;1.73;;
21721;SDS011;11023;48.274;7.794;2023-04-30T11:38:16;2.78;;;1.40;;
21721;SDS011;11023;48.274;7.794;2023-04-30T11:40:47;1.52;;;1.40;;
21721;SDS011;11023;48.274;7.794;2023-04-30T11:43:31;2.17;;;1.45;;
21721;SDS011;11023;48.274;7.794;2023-04-30T11:45:59;1.83;;;1.58;;
21721;SDS011;11023;48.274;7.794;2023-04-30T11:48:29;1.98;;;1.80;;
21721;SDS011;11023;48.274;7.794;2023-04-30T11:51:01;2.25;;;1.90;;
21721;SDS011;11023;48.274;7.794;2023-04-30T11:53:27;2.28;;;1.70;;
21721;SDS011;11023;48.274;7.794;2023-04-30T11:55:53;1.50;;;1.40;;
21721;SDS011;11023;48.274;7.794;2023-04-30T11:58:20;2.53;;;1.65;;
21721;SDS011;11023;48.274;7.794;2023-04-30T12:00:46;2.92;;;1.70;;
21721;SDS011;11023;48.274;7.794;2023-04-30T12:03:13;2.33;;;1.90;;
21721;SDS011;11023;48.274;7.794;2023-04-30T12:08:12;1.88;;;1.65;;
21721;SDS011;11023;48.274;7.794;2023-04-30T12:10:50;2.70;;;2.25;;
21721;SDS011;11023;48.274;7.794;2023-04-30T12:13:18;3.13;;;2.25;;
21721;SDS011;11023;48.274;7.794;2023-04-30T12:15:58;4.63;;;2.83;;
21721;SDS011;11023;48.274;7.794;2023-04-30T12:18:25;4.28;;;2.65;;
21721;SDS011;11023;48.274;7.794;2023-04-30T12:21:00;3.70;;;2.38;;
21721;SDS011;11023;48.274;7.794;2023-04-30T12:23:25;5.45;;;2.63;;
21721;SDS011;11023;48.274;7.794;2023-04-30T12:25:58;2.03;;;1.83;;
21721;SDS011;11023;48.274;7.794;2023-04-30T12:28:24;1.70;;;1.60;;
21721;SDS011;11023;48.274;7.794;2023-04-30T12:30:49;1.80;;;1.63;;
21721;SDS011;11023;48.274;7.794;2023-04-30T12:33:18;2.40;;;2.20;;
21721;SDS011;11023;48.274;7.794;2023-04-30T12:35:46;3.90;;;2.17;;
21721;SDS011;11023;48.274;7.794;2023-04-30T12:38:17;2.28;;;2.08;;
21721;SDS011;11023;48.274;7.794;2023-04-30T12:40:45;2.10;;;1.80;;
21721;SDS011;11023;48.274;7.794;2023-04-30T12:43:16;2.95;;;2.25;;
21721;SDS011;11023;48.274;7.794;2023-04-30T12:45:54;2.22;;;1.92;;
21721;SDS011;11023;48.274;7.794;2023-04-30T12:48:23;2.35;;;2.15;;
21721;SDS011;11023;48.274;7.794;2023-04-30T12:51:07;2.58;;;2.05;;
21721;SDS011;11023;48.274;7.794;2023-04-30T12:56:13;2.67;;;1.90;;
21721;SDS011;11023;48.274;7.794;2023-04-30T12:58:46;2.80;;;2.30;;
21721;SDS011;11023;48.274;7.794;2023-04-30T13:01:23;3.35;;;2.20;;
21721;SDS011;11023;48.274;7.794;2023-04-30T13:03:52;2.22;;;1.80;;
21721;SDS011;11023;48.274;7.794;2023-04-30T13:06:19;1.98;;;1.80;;
21721;SDS011;11023;48.274;7.794;2023-04-30T13:08:49;1.80;;;1.70;;
21721;SDS011;11023;48.274;7.794;2023-04-30T13:11:15;1.90;;;1.80;;
21721;SDS011;11023;48.274;7.794;2023-04-30T13:13:44;1.90;;;1.80;;
21721;SDS011;11023;48.274;7.794;2023-04-30T13:16:10;2.22;;;1.63;;
21721;SDS011;11023;48.274;7.794;2023-04-30T13:18:50;1.70;;;1.60;;
21721;SDS011;11023;48.274;7.794;2023-04-30T13:21:18;3.35;;;1.98;;
21721;SDS011;11023;48.274;7.794;2023-04-30T13:23:48;2.40;;;2.20;;
21721;SDS011;11023;48.274;7.794;2023-04-30T13:26:14;3.25;;;1.83;;
21721;SDS011;11023;48.274;7.794;2023-04-30T13:28:40;4.57;;;3.75;;
21721;SDS011;11023;48.274;7.794;2023-04-30T13:31:11;7.88;;;4.55;;
21721;SDS011;11023;48.274;7.794;2023-04-30T13:33:37;5.13;;;3.58;;
21721;SDS011;11023;48.274;7.794;2023-04-30T13:36:05;3.95;;;2.10;;
21721;SDS011;11023;48.274;7.794;2023-04-30T13:38:31;2.47;;;1.70;;
21721;SDS011;11023;48.274;7.794;2023-04-30T13:41:01;4.50;;;3.50;;
21721;SDS011;11023;48.274;7.794;2023-04-30T13:43:27;11.98;;;2.97;;
21721;SDS011;11023;48.274;7.794;2023-04-30T13:45:55;5.47;;;4.25;;
21721;SDS011;11023;48.274;7.794;2023-04-30T13:48:22;6.57;;;5.22;;
21721;SDS011;11023;48.274;7.794;2023-04-30T13:50:58;3.90;;;2.42;;
21721;SDS011;11023;48.274;7.794;2023-04-30T13:53:26;7.65;;;4.10;;
21721;SDS011;11023;48.274;7.794;2023-04-30T13:55:55;3.80;;;2.90;;
21721;SDS011;11023;48.274;7.794;2023-04-30T13:58:23;2.72;;;1.88;;
21721;SDS011;11023;48.274;7.794;2023-04-30T14:00:52;2.72;;;1.67;;
21721;SDS011;11023;48.274;7.794;2023-04-30T14:03:18;2.97;;;2.22;;
21721;SDS011;11023;48.274;7.794;2023-04-30T14:05:47;4.40;;;3.25;;
21721;SDS011;11023;48.274;7.794;2023-04-30T14:08:15;1.92;;;1.73;;
21721;SDS011;11023;48.274;7.794;2023-04-30T14:10:41;1.60;;;1.50;;
21721;SDS011;11023;48.274;7.794;2023-04-30T14:13:07;1.90;;;1.70;;
21721;SDS011;11023;48.274;7.794;2023-04-30T14:15:33;1.90;;;1.60;;
21721;SDS011;11023;48.274;7.794;2023-04-30T14:18:02;2.90;;;2.55;;
21721;SDS011;11023;48.274;7.794;2023-04-30T14:20:30;2.55;;;2.00;;
21721;SDS011;11023;48.274;7.794;2023-04-30T14:22:56;4.13;;;2.20;;
21721;SDS011;11023;48.274;7.794;2023-04-30T14:25:24;3.03;;;1.60;;
21721;SDS011;11023;48.274;7.794;2023-04-30T14:27:50;2.35;;;1.80;;
21721;SDS011;11023;48.274;7.794;2023-04-30T14:30:23;2.75;;;1.63;;
21721;SDS011;11023;48.274;7.794;2023-04-30T14:32:49;2.10;;;1.90;;
21721;SDS011;11023;48.274;7.794;2023-04-30T14:35:15;1.75;;;1.60;;
21721;SDS011;11023;48.274;7.794;2023-04-30T14:37:46;2.30;;;1.52;;
21721;SDS011;11023;48.274;7.794;2023-04-30T14:40:15;1.60;;;1.50;;
21721;SDS011;11023;48.274;7.794;2023-04-30T14:42:57;2.75;;;1.60;;
21721;SDS011;11023;48.274;7.794;2023-04-30T14:45:37;2.03;;;1.83;;
21721;SDS011;11023;48.274;7.794;2023-04-30T14:48:04;2.47;;;1.90;;
21721;SDS011;11023;48.274;7.794;2023-04-30T14:50:33;2.65;;;1.80;;
21721;SDS011;11023;48.274;7.794;2023-04-30T14:53:02;2.45;;;1.83;;
21721;SDS011;11023;48.274;7.794;2023-04-30T14:55:38;2.30;;;1.63;;
21721;SDS011;11023;48.274;7.794;2023-04-30T14:58:09;1.98;;;1.75;;
21721;SDS011;11023;48.274;7.794;2023-04-30T15:00:37;2.88;;;2.00;;
21721;SDS011;11023;48.274;7.794;2023-04-30T15:03:03;2.22;;;2.00;;
21721;SDS011;11023;48.274;7.794;2023-04-30T15:05:42;3.45;;;2.10;;
21721;SDS011;11023;48.274;7.794;2023-04-30T15:08:11;2.47;;;1.88;;
21721;SDS011;11023;48.274;7.794;2023-04-30T15:10:37;2.20;;;2.00;;
21721;SDS011;11023;48.274;7.794;2023-04-30T15:13:03;2.33;;;2.13;;
21721;SDS011;11023;48.274;7.794;2023-04-30T15:15:34;2.40;;;2.20;;
21721;SDS011;11023;48.274;7.794;2023-04-30T15:18:01;2.60;;;1.88;;
21721;SDS011;11023;48.274;7.794;2023-04-30T15:20:30;2.63;;;2.17;;
21721;SDS011;11023;48.274;7.794;2023-04-30T15:22:58;2.33;;;2.15;;
21721;SDS011;11023;48.274;7.794;2023-04-30T15:25:24;2.30;;;2.10;;
21721;SDS011;11023;48.274;7.794;2023-04-30T15:27:55;2.70;;;2.20;;
21721;SDS011;11023;48.274;7.794;2023-04-30T15:30:22;2.40;;;1.98;;